createdAt,value
2023-01-17T00:00:00.000Z,66.14
2023-01-17T00:15:00.000Z,66.65
2023-01-17T00:30:00.000Z,65.25
2023-01-17T00:45:00.000Z,66.62
2023-01-17T01:00:00.000Z,67.44
2023-01-17T01:15:00.000Z,69.14
2023-01-17T01:30:00.000Z,70.92
2023-01-17T01:45:00.000Z,70.55
2023-01-17T02:00:00.000Z,71
2023-01-17T02:15:00.000Z,71.68
2023-01-17T02:30:00.000Z,72.77
2023-01-17T02:45:00.000Z,73.84
2023-01-17T03:00:00.000Z,74.77
2023-01-17T03:15:00.000Z,74.93
2023-01-17T03:30:00.000Z,73.89
2023-01-17T03:45:00.000Z,72.8
2023-01-17T04:00:00.000Z,72.06
2023-01-17T04:15:00.000Z,72.99
2023-01-17T04:30:00.000Z,73.82
2023-01-17T04:45:00.000Z,74.34
2023-01-17T05:00:00.000Z,72.79
2023-01-17T05:15:00.000Z,73.04
2023-01-17T05:30:00.000Z,73.52
2023-01-17T05:45:00.000Z,73.77
2023-01-17T06:00:00.000Z,74.22
2023-01-17T06:15:00.000Z,71.98
2023-01-17T06:30:00.000Z,71.24
2023-01-17T06:45:00.000Z,71.85
2023-01-17T07:00:00.000Z,71.75
2023-01-17T07:15:00.000Z,72.03
2023-01-17T07:30:00.000Z,71.44
2023-01-17T07:45:00.000Z,70.75
2023-01-17T08:00:00.000Z,69.86
2023-01-17T08:15:00.000Z,69.79
2023-01-17T08:30:00.000Z,68.83
2023-01-17T08:45:00.000Z,67.89
2023-01-17T09:00:00.000Z,66.71
2023-01-17T09:15:00.000Z,65.44
2023-01-17T09:30:00.000Z,62.47
2023-01-17T09:45:00.000Z,59.2
2023-01-17T10:00:00.000Z,49.29
2023-01-17T10:15:00.000Z,47.98
2023-01-17T10:30:00.000Z,48.48
2023-01-17T10:45:00.000Z,47.72
2023-01-17T11:00:00.000Z,47.1
2023-01-17T11:15:00.000Z,48.52
2023-01-17T11:30:00.000Z,51.04
2023-01-17T11:45:00.000Z,51.65
2023-01-17T12:00:00.000Z,51.19
2023-01-17T12:15:00.000Z,52.06
2023-01-17T12:30:00.000Z,53.33
2023-01-17T12:45:00.000Z,52.87
2023-01-17T13:00:00.000Z,52.67
2023-01-17T13:15:00.000Z,53.72
2023-01-17T13:30:00.000Z,53.63
2023-01-17T13:45:00.000Z,53.34
2023-01-17T14:00:00.000Z,53.47
2023-01-17T14:15:00.000Z,54.96
2023-01-17T14:30:00.000Z,56.15
2023-01-17T14:45:00.000Z,56.7
2023-01-17T15:00:00.000Z,58.62
2023-01-17T15:15:00.000Z,60.29
2023-01-17T15:30:00.000Z,61.7
2023-01-17T15:45:00.000Z,63.45
2023-01-17T16:00:00.000Z,64.54
2023-01-17T16:15:00.000Z,64.9
2023-01-17T16:30:00.000Z,64.94
2023-01-17T16:45:00.000Z,64.7
2023-01-17T17:00:00.000Z,64.92
2023-01-17T17:15:00.000Z,66.61
2023-01-17T17:30:00.000Z,66.71
2023-01-17T17:45:00.000Z,66.75
2023-01-17T18:00:00.000Z,68.94
2023-01-17T18:15:00.000Z,69.89
2023-01-17T18:30:00.000Z,69.5
2023-01-17T18:45:00.000Z,70.28
2023-01-17T19:00:00.000Z,70.41
2023-01-17T19:15:00.000Z,70.35
2023-01-17T19:30:00.000Z,70.76
2023-01-17T19:45:00.000Z,70.75
2023-01-17T20:00:00.000Z,70.22
2023-01-17T20:15:00.000Z,71.57
2023-01-17T20:30:00.000Z,72.53
2023-01-17T20:45:00.000Z,72.11
2023-01-17T21:00:00.000Z,71.58
2023-01-17T21:15:00.000Z,71.33
2023-01-17T21:30:00.000Z,72.28
2023-01-17T21:45:00.000Z,72.16
2023-01-17T22:00:00.000Z,71.88
2023-01-17T22:15:00.000Z,72.01
2023-01-17T22:30:00.000Z,71.43
2023-01-17T22:45:00.000Z,71.78
2023-01-17T23:00:00.000Z,72.61
2023-01-17T23:15:00.000Z,74.08
2023-01-17T23:30:00.000Z,76.22
2023-01-17T23:45:00.000Z,75.43
